Kimballton, Virginia
Current Conditions -  °F | °C
As of 11:15 PM on Monday 22 Dec 2014 (Local Time) from KPSK Reporting Station
Haze Haze  
Wind Chill: 32°   Ceiling: 300
Heat Index: 36°   Visibility: 0.75mi
Dew Point: 36°   Wind: 5mph
Humidity: 100%   Direction: 70°ENE
Pressure: 30.01"   Gusts: NA
Location:  37.3528°N, 80.6692°W
Report Text: KPSK 230415Z AUTO 07004KT 3/4SM BR OVC003 02/02 A3001 RMK AO2 T00210021
Loading
Personal Weather Stations






























Interactive Weather Map New forecast layout! Learn more

10-Day Weather Forecast

Advertisements
Track Severe Weather on mobile